CheckWX is a tool to help pilots better visualize weather data.  It is not intended as a substitute for an official pre-flight weather briefing.

01:26:28 UTC

3R7 METAR
Jennings Airport
Jennings, Louisiana, USA
Current

31 mins ago

K3R7 200055Z AUTO 14003KT 10SM CLR 28/25 A3001 RMK AO2 LTG DSNT SE T02800247
Observed
Jul-20 @ 00:55 UTC
Wind
  • 140° at 3 KTS
Visibility
10 SM
Flight Rules
VFR
Cloud Levels
  • Clear skies
Temperature
28°C / 82°F
Dewpoint
25°C / 77°F
Heat Index
32°C / 90°F
Humidity
84%
Altimeter
30.01" Hg
Pressure
1016.22 hPa
Previous

51 mins ago

K3R7 200035Z AUTO 14003KT 10SM CLR 28/25 A3000 RMK AO2 T02820247
Observed
Jul-20 @ 00:35 UTC
Wind
  • 140° at 3 KTS
Visibility
10 SM
Flight Rules
VFR
Cloud Levels
  • Clear skies
Temperature
28°C / 82°F
Dewpoint
25°C / 77°F
Heat Index
32°C / 90°F
Humidity
84%
Altimeter
30" Hg
Pressure
1015.92 hPa
Previous

1 hour ago

K3R7 200015Z AUTO 13005KT 10SM CLR 29/25 A3000 RMK AO2 T02870246
Observed
Jul-20 @ 00:15 UTC
Wind
  • 130° at 5 KTS
Visibility
10 SM
Flight Rules
VFR
Cloud Levels
  • Clear skies
Temperature
29°C / 84°F
Dewpoint
25°C / 77°F
Heat Index
34°C / 94°F
Humidity
79%
Altimeter
30" Hg
Pressure
1015.92 hPa